Time;durP1;ratioP1;P1;durP2;ratioP2;P2;SDS_P1;SDS_P2;PMS_P1;PMS_P2;Temp;Humidity;BMP_temperature;BMP_pressure;BME280_temperature;BME280_humidity;BME280_pressure;Samples;Min_cycle;Max_cycle;Signal;HPM_P1;HPM_P2
2021/06/01 00:00:24;;;;;;;2.08;1.50;;;;;;;24.18;41.60;94642.28;4951999;28;20034;-71
2021/06/01 00:02:50;;;;;;;2.05;1.52;;;;;;;24.17;41.09;94627.19;4968760;28;20070;-71
2021/06/01 00:05:15;;;;;;;1.55;1.42;;;;;;;24.17;41.57;94640.84;4967697;28;20101;-71
2021/06/01 00:07:41;;;;;;;1.50;1.20;;;;;;;24.17;41.10;94621.75;4968762;28;20027;-71
2021/06/01 00:10:07;;;;;;;2.00;1.40;;;;;;;24.15;41.65;94629.69;4969255;28;20019;-72
2021/06/01 00:12:33;;;;;;;1.80;1.45;;;;;;;24.14;41.31;94617.31;4968782;28;20098;-71
2021/06/01 00:14:59;;;;;;;2.08;1.70;;;;;;;22.89;41.36;94434.84;4968723;28;20022;-71
2021/06/01 00:17:24;;;;;;;2.15;1.38;;;;;;;24.12;41.54;94617.09;4935472;28;20031;-71
2021/06/01 00:19:50;;;;;;;1.98;1.52;;;;;;;24.12;41.72;94619.09;4968711;28;20034;-71
2021/06/01 00:22:15;;;;;;;1.70;1.40;;;;;;;24.02;41.51;94602.41;4968060;28;20038;-71
2021/06/01 00:24:41;;;;;;;2.10;1.52;;;;;;;24.13;41.64;94596.75;4951547;28;20505;-71
2021/06/01 00:27:06;;;;;;;1.55;1.30;;;;;;;23.98;41.75;94585.63;4951399;28;20450;-71
2021/06/01 00:29:33;;;;;;;1.60;1.30;;;;;;;24.08;41.43;94597.59;4968795;28;20418;-71
2021/06/01 00:31:58;;;;;;;2.17;1.60;;;;;;;24.10;41.46;94592.34;4968546;28;20114;-71
2021/06/01 00:34:23;;;;;;;1.80;1.52;;;;;;;24.12;41.23;94589.09;4968269;28;20027;-71
2021/06/01 00:36:49;;;;;;;1.90;1.50;;;;;;;24.10;41.89;94592.34;4969141;28;20411;-71
2021/06/01 00:39:14;;;;;;;1.80;1.55;;;;;;;24.11;41.30;94587.59;4968757;28;20033;-71
2021/06/01 00:41:41;;;;;;;1.33;1.10;;;;;;;23.96;41.28;94560.88;4967667;28;20585;-71
2021/06/01 00:44:06;;;;;;;1.58;1.40;;;;;;;22.88;41.52;94400.72;4968492;28;20054;-71
2021/06/01 00:46:32;;;;;;;2.58;1.42;;;;;;;23.64;41.48;94517.84;4951020;28;20399;-71
2021/06/01 00:48:57;;;;;;;2.08;1.75;;;;;;;24.07;41.79;94581.75;4967410;28;20038;-71
2021/06/01 00:51:23;;;;;;;1.60;1.40;;;;;;;24.03;41.88;94582.03;4951233;28;20026;-71
2021/06/01 00:53:48;;;;;;;1.67;1.45;;;;;;;24.03;41.67;94576.59;4968607;28;20025;-71
2021/06/01 00:56:14;;;;;;;1.58;1.40;;;;;;;24.05;42.04;94579.53;4968500;28;20498;-71
2021/06/01 00:58:39;;;;;;;2.40;1.60;;;;;;;23.22;41.47;94461.56;4968581;28;20035;-71
2021/06/01 01:03:37;;;;;;;1.77;1.50;;;;;;;24.02;41.90;94583.31;4966885;28;20137;-71
2021/06/01 01:06:17;;;;;;;1.70;1.40;;;;;;;23.26;41.38;94477.59;4968462;28;20037;-71
2021/06/01 01:08:54;;;;;;;1.58;1.48;;;;;;;24.03;41.36;94589.50;4966115;28;20038;-71
2021/06/01 01:11:34;;;;;;;2.58;1.27;;;;;;;24.02;42.08;94591.50;4967007;28;20121;-71
2021/06/01 01:14:28;;;;;;;1.60;1.40;;;;;;;24.01;41.70;94595.47;4950980;28;20031;-70
2021/06/01 01:17:16;;;;;;;1.70;1.48;;;;;;;24.01;42.09;94590.03;4959963;28;20122;-71
2021/06/01 01:20:02;;;;;;;1.75;1.40;;;;;;;23.98;42.04;94585.63;4952995;28;20399;-71
2021/06/01 01:22:28;;;;;;;2.15;1.60;;;;;;;23.98;41.40;94590.34;4971672;28;20045;-71
2021/06/01 01:24:58;;;;;;;1.67;1.50;;;;;;;23.97;41.88;94578.69;4971790;28;20022;-71
2021/06/01 01:27:45;;;;;;;1.67;1.35;;;;;;;23.95;41.88;94583.94;4954537;28;20027;-71
2021/06/01 01:30:11;;;;;;;1.73;1.50;;;;;;;23.97;41.38;94589.59;4971996;28;20077;-71
2021/06/01 01:32:59;;;;;;;1.70;1.48;;;;;;;23.99;41.72;94608.16;4954217;28;20035;-71
2021/06/01 01:35:28;;;;;;;1.95;1.40;;;;;;;23.98;41.90;94591.06;4956734;28;20018;-71
2021/06/01 01:37:53;;;;;;;1.98;1.38;;;;;;;23.98;41.40;94591.06;4938332;28;20478;-71
2021/06/01 01:40:22;;;;;;;1.70;1.40;;;;;;;23.97;41.83;94584.13;4970637;28;20129;-71
2021/06/01 01:42:51;;;;;;;1.33;1.20;;;;;;;23.96;42.13;94582.69;4971873;28;20031;-71
2021/06/01 01:45:21;;;;;;;1.52;1.40;;;;;;;22.98;41.54;94442.66;4972585;28;20039;-71
2021/06/01 01:50:17;;;;;;;1.80;1.50;;;;;;;23.79;41.57;94556.97;4971723;28;20031;-71
2021/06/01 01:52:43;;;;;;;1.60;1.40;;;;;;;23.87;41.72;94569.47;4971413;28;20033;-71
2021/06/01 01:55:09;;;;;;;1.85;1.40;;;;;;;23.95;41.87;94570.28;4953921;28;20018;-71
2021/06/01 01:57:35;;;;;;;1.40;1.30;;;;;;;23.94;42.18;94568.81;4970954;28;20075;-70
2021/06/01 02:00:06;;;;;;;1.65;1.50;;;;;;;23.88;41.76;94575.63;4971343;28;20113;-71
2021/06/01 02:02:32;;;;;;;2.00;1.30;;;;;;;23.86;41.82;94567.25;4969572;28;20112;-71
2021/06/01 02:04:57;;;;;;;2.63;1.75;;;;;;;23.92;42.24;94565.88;4953959;28;20030;-71
2021/06/01 02:07:23;;;;;;;1.65;1.40;;;;;;;23.91;42.05;94575.31;4953952;28;20453;-71
2021/06/01 02:09:48;;;;;;;1.77;1.38;;;;;;;23.91;42.52;94567.13;4971298;28;20030;-71
2021/06/01 02:12:14;;;;;;;1.73;1.40;;;;;;;23.91;41.94;94564.41;4970893;28;20521;-71
2021/06/01 02:14:40;;;;;;;1.58;1.38;;;;;;;23.91;42.10;94564.41;4971100;28;20181;-71
2021/06/01 02:17:05;;;;;;;2.00;1.48;;;;;;;23.90;41.71;94562.97;4971219;28;20121;-71
2021/06/01 02:19:31;;;;;;;1.70;1.60;;;;;;;23.32;42.38;94476.25;4971034;28;20580;-71
2021/06/01 02:22:07;;;;;;;1.92;1.52;;;;;;;23.89;41.97;94556.03;4953142;28;20031;-71
2021/06/01 02:24:42;;;;;;;1.60;1.33;;;;;;;23.14;41.81;94470.88;4970908;28;20051;-71
2021/06/01 02:27:27;;;;;;;1.70;1.55;;;;;;;23.59;41.71;94521.38;4936503;28;20058;-70
2021/06/01 02:30:02;;;;;;;1.75;1.50;;;;;;;23.88;42.23;94576.38;4946984;28;20030;-71
2021/06/01 02:32:36;;;;;;;1.70;1.60;;;;;;;23.89;41.69;94561.47;4970868;28;20034;-71
2021/06/01 02:35:06;;;;;;;1.90;1.48;;;;;;;23.88;42.22;94554.56;4953152;28;20030;-71
2021/06/01 02:37:32;;;;;;;1.40;1.30;;;;;;;22.93;42.22;94424.41;4970736;28;20038;-71
2021/06/01 02:39:57;;;;;;;1.73;1.33;;;;;;;23.88;42.09;94576.38;4953111;28;20094;-71
2021/06/01 02:42:23;;;;;;;1.85;1.60;;;;;;;23.75;42.06;94561.25;4952960;28;20034;-71
2021/06/01 02:44:50;;;;;;;2.08;1.60;;;;;;;23.71;42.33;94549.94;4953441;28;20073;-71
2021/06/01 02:47:15;;;;;;;1.73;1.40;;;;;;;23.86;42.29;94573.44;4970541;28;20118;-71
2021/06/01 02:49:41;;;;;;;2.30;1.90;;;;;;;22.94;42.24;94431.34;4952875;28;20049;-71
2021/06/01 02:52:06;;;;;;;1.52;1.20;;;;;;;23.37;42.02;94511.56;4969171;28;20035;-71
2021/06/01 02:54:32;;;;;;;1.63;1.50;;;;;;;23.87;41.77;94574.91;4952710;28;20089;-71
2021/06/01 02:56:57;;;;;;;1.67;1.38;;;;;;;23.46;42.21;94518.63;4952938;28;20038;-71
2021/06/01 02:59:23;;;;;;;1.38;1.17;;;;;;;23.86;42.21;94571.97;4969061;28;20034;-71
2021/06/01 03:01:49;;;;;;;1.83;1.60;;;;;;;23.87;42.02;94580.38;4952966;28;20414;-71
2021/06/01 03:04:14;;;;;;;1.98;1.48;;;;;;;23.70;42.45;94549.19;4968988;28;20136;-71
2021/06/01 03:06:42;;;;;;;1.58;1.23;;;;;;;22.96;41.79;94447.88;4969464;28;20445;-71
2021/06/01 03:09:07;;;;;;;1.88;1.50;;;;;;;23.79;42.31;94570.59;4968697;28;20157;-71
2021/06/01 03:11:33;;;;;;;2.03;1.50;;;;;;;23.22;42.32;94505.16;4970067;28;20027;-71
2021/06/01 03:13:59;;;;;;;1.70;1.50;;;;;;;23.84;42.39;94585.38;4952370;28;20487;-71
2021/06/01 03:16:24;;;;;;;1.80;1.60;;;;;;;23.84;42.32;94586.13;4952243;28;20514;-71
2021/06/01 03:18:50;;;;;;;1.50;1.40;;;;;;;23.83;42.49;94589.38;4969319;28;20030;-71
2021/06/01 03:21:15;;;;;;;1.52;1.40;;;;;;;23.83;42.60;94583.94;4951903;28;20027;-71
2021/06/01 03:23:41;;;;;;;1.55;1.30;;;;;;;23.84;42.33;94579.94;4969767;28;20052;-71
2021/06/01 03:26:07;;;;;;;2.33;1.60;;;;;;;23.82;42.30;94577.00;4969568;28;20100;-71
2021/06/01 03:28:33;;;;;;;1.83;1.48;;;;;;;23.81;42.08;94576.28;4969782;28;20030;-71
2021/06/01 03:30:58;;;;;;;1.63;1.27;;;;;;;23.82;42.02;94577.00;4969769;28;20475;-70
2021/06/01 03:33:24;;;;;;;1.60;1.30;;;;;;;22.72;41.96;94413.84;4951803;28;20031;-71
2021/06/01 03:35:49;;;;;;;1.80;1.40;;;;;;;23.79;42.59;94575.31;4969556;28;20039;-71
2021/06/01 03:38:15;;;;;;;1.65;1.35;;;;;;;23.80;42.42;94574.06;4969651;28;20054;-71
2021/06/01 03:40:40;;;;;;;1.75;1.58;;;;;;;23.80;42.22;94574.06;4969318;28;20093;-71
2021/06/01 03:43:06;;;;;;;1.65;1.35;;;;;;;23.64;42.70;94558.72;4968909;28;20031;-69
2021/06/01 03:45:32;;;;;;;1.60;1.50;;;;;;;23.80;42.47;94587.69;4969409;28;20023;-70
2021/06/01 03:47:57;;;;;;;1.67;1.30;;;;;;;23.79;42.60;94578.03;4969200;28;20015;-70
2021/06/01 03:50:23;;;;;;;1.90;1.50;;;;;;;23.81;42.59;94572.78;4968929;28;20026;-70
2021/06/01 03:52:48;;;;;;;1.83;1.50;;;;;;;23.81;42.40;94580.97;4969135;28;20073;-70
2021/06/01 03:55:14;;;;;;;1.80;1.48;;;;;;;23.77;42.56;94575.13;4951964;28;20023;-70
2021/06/01 03:57:40;;;;;;;1.60;1.50;;;;;;;23.81;42.20;94575.53;4968887;28;20495;-70
2021/06/01 04:00:06;;;;;;;1.50;1.27;;;;;;;23.54;42.43;94530.34;4969236;28;20083;-70
2021/06/01 04:02:31;;;;;;;2.00;1.70;;;;;;;23.47;42.32;94525.53;4967880;28;20038;-70
2021/06/01 04:04:57;;;;;;;1.80;1.50;;;;;;;23.70;42.42;94554.63;4969021;28;20060;-70
2021/06/01 04:07:22;;;;;;;1.67;1.40;;;;;;;23.74;42.49;94557.06;4967823;28;20068;-70
2021/06/01 04:09:48;;;;;;;1.50;1.40;;;;;;;23.65;42.48;94538.41;4951680;28;20030;-70
2021/06/01 04:12:13;;;;;;;1.77;1.50;;;;;;;23.83;42.74;94562.13;4967527;28;20092;-70
2021/06/01 04:14:39;;;;;;;1.75;1.50;;;;;;;23.81;42.63;94553.72;4967806;28;20033;-72
2021/06/01 04:17:04;;;;;;;1.95;1.40;;;;;;;23.86;42.76;94557.06;4949746;28;20038;-75
2021/06/01 04:19:30;;;;;;;1.70;1.48;;;;;;;23.89;42.12;94564.22;4960403;28;20034;-72
2021/06/01 04:21:56;;;;;;;1.45;1.35;;;;;;;23.93;42.76;94561.16;4965370;28;20034;-71
2021/06/01 04:24:21;;;;;;;1.90;1.27;;;;;;;23.95;42.66;94559.38;4964832;28;20023;-70
2021/06/01 04:26:47;;;;;;;2.17;1.10;;;;;;;23.96;42.66;94549.97;4934778;28;20034;-74
2021/06/01 04:29:12;;;;;;;1.55;1.40;;;;;;;24.02;41.99;94561.50;4941390;29;20035;-75
2021/06/01 04:31:40;;;;;;;1.55;1.25;;;;;;;24.09;42.34;94551.94;4966884;28;20034;-71
2021/06/01 04:34:06;;;;;;;1.60;1.38;;;;;;;24.18;42.39;94584.25;4948677;29;20414;-70
2021/06/01 04:36:31;;;;;;;1.98;1.65;;;;;;;24.28;42.87;94558.03;4960598;28;20043;-70
2021/06/01 04:38:57;;;;;;;2.05;1.33;;;;;;;24.26;41.86;94550.38;4964718;28;20085;-70
2021/06/01 04:41:22;;;;;;;1.65;1.33;;;;;;;24.36;41.48;94562.34;4951527;28;20030;-69
2021/06/01 04:43:48;;;;;;;2.00;1.30;;;;;;;24.40;41.15;94555.31;4966976;28;20033;-70
2021/06/01 04:46:13;;;;;;;1.73;1.23;;;;;;;24.49;41.29;94565.06;4949851;28;20471;-73
2021/06/01 04:48:39;;;;;;;1.67;1.38;;;;;;;24.62;41.17;94565.03;4965920;28;20022;-70
2021/06/01 04:51:04;;;;;;;1.40;1.30;;;;;;;24.69;41.16;94570.59;4949842;28;20045;-71
2021/06/01 04:53:30;;;;;;;1.50;1.40;;;;;;;24.78;40.54;94572.16;4964079;28;20812;-73
2021/06/01 04:55:55;;;;;;;1.65;1.30;;;;;;;24.84;40.50;94576.97;4971604;28;20038;-72
2021/06/01 04:58:21;;;;;;;1.70;1.50;;;;;;;24.93;40.30;94582.00;4971057;28;20034;-74
2021/06/01 05:00:46;;;;;;;1.63;1.38;;;;;;;25.01;40.19;94563.72;4938712;28;20038;-70
2021/06/01 05:03:12;;;;;;;1.40;1.30;;;;;;;24.71;40.01;94518.16;4950631;29;20122;-70
2021/06/01 05:05:37;;;;;;;2.05;1.60;;;;;;;25.17;39.52;94573.53;4967137;28;20039;-70
2021/06/01 05:08:03;;;;;;;1.80;1.35;;;;;;;25.36;39.13;94560.41;4951021;28;20050;-70
2021/06/01 05:10:28;;;;;;;1.45;1.10;;;;;;;24.74;39.11;94478.88;4950561;28;20019;-71
2021/06/01 05:12:54;;;;;;;1.90;1.40;;;;;;;25.38;39.11;94557.88;4950650;29;20027;-69
2021/06/01 05:15:19;;;;;;;1.58;1.48;;;;;;;25.27;39.43;94536.28;4948065;29;20019;-69
2021/06/01 05:17:45;;;;;;;1.50;1.40;;;;;;;25.19;38.32;94496.50;4946974;28;20091;-68
2021/06/01 05:20:11;;;;;;;1.65;1.40;;;;;;;25.63;38.50;94572.69;4947686;29;20027;-70
2021/06/01 05:22:36;;;;;;;1.38;1.27;;;;;;;25.40;38.95;94549.88;4948122;28;20489;-69
2021/06/01 05:25:02;;;;;;;1.50;1.13;;;;;;;25.59;38.54;94572.28;4943877;29;20024;-71
2021/06/01 05:27:28;;;;;;;1.63;1.30;;;;;;;25.66;38.67;94566.19;4948501;29;20023;-72
2021/06/01 05:29:57;;;;;;;1.40;1.30;;;;;;;25.71;40.82;94573.50;4941752;29;20039;-71
2021/06/01 05:35:17;;;;;;;1.48;1.27;;;;;;;25.83;39.51;94565.22;4947528;29;20054;-72
2021/06/01 05:37:42;;;;;;;1.63;1.30;;;;;;;26.00;40.17;94562.78;4950289;28;20887;-70
2021/06/01 05:40:08;;;;;;;1.77;1.30;;;;;;;26.00;39.14;94567.53;4957606;28;20035;-71
2021/06/01 05:42:34;;;;;;;1.40;1.05;;;;;;;25.99;38.91;94572.28;4950705;29;20062;-71
2021/06/01 05:44:59;;;;;;;1.50;1.20;;;;;;;24.84;39.49;94413.09;4944540;29;20030;-70
2021/06/01 05:47:25;;;;;;;1.40;1.17;;;;;;;25.62;39.84;94560.28;4947895;29;20035;-71
2021/06/01 05:49:50;;;;;;;1.55;1.45;;;;;;;25.70;39.91;94574.78;4930043;29;20023;-71
2021/06/01 05:52:16;;;;;;;1.58;1.48;;;;;;;25.16;39.91;94498.28;4945048;29;20039;-70
2021/06/01 05:54:41;;;;;;;1.88;1.42;;;;;;;25.78;39.66;94572.84;4949220;29;20031;-70
2021/06/01 05:57:07;;;;;;;1.50;1.10;;;;;;;25.67;38.82;94540.31;4965576;28;20126;-70
2021/06/01 05:59:33;;;;;;;1.73;1.48;;;;;;;25.86;38.86;94575.09;4950330;28;20486;-69
2021/06/01 06:01:58;;;;;;;1.30;0.98;;;;;;;25.91;38.27;94571.47;4949690;29;20067;-71
2021/06/01 06:04:24;;;;;;;2.22;1.27;;;;;;;25.93;37.77;94562.72;4967570;28;20426;-69
2021/06/01 06:06:49;;;;;;;1.45;0.98;;;;;;;26.00;37.94;94568.25;4970072;28;20497;-69
2021/06/01 06:09:14;;;;;;;1.20;1.05;;;;;;;26.08;38.39;94566.31;4969787;28;20410;-69
2021/06/01 06:11:40;;;;;;;1.30;1.20;;;;;;;26.00;38.17;94573.00;4968399;28;20054;-67
2021/06/01 06:14:05;;;;;;;1.88;1.15;;;;;;;25.98;38.68;94565.34;4964371;28;20090;-68
2021/06/01 06:16:35;;;;;;;1.33;1.17;;;;;;;25.94;38.14;94564.94;4957473;28;20062;-68
2021/06/01 06:19:00;;;;;;;3.13;1.20;;;;;;;26.03;38.13;94567.19;4952350;28;20085;-70
2021/06/01 06:21:25;;;;;;;3.47;1.17;;;;;;;25.95;38.00;94566.41;4956857;28;20038;-69
2021/06/01 06:23:51;;;;;;;1.80;1.00;;;;;;;25.89;38.36;94557.63;4952385;28;20022;-69
2021/06/01 06:26:17;;;;;;;2.90;1.13;;;;;;;25.93;38.09;94563.50;4952159;28;20023;-70
2021/06/01 06:28:42;;;;;;;2.47;1.10;;;;;;;24.55;38.33;94390.97;4965504;28;20037;-68
2021/06/01 06:31:08;;;;;;;2.15;1.20;;;;;;;25.82;38.23;94563.75;4967159;28;20465;-69
2021/06/01 06:33:33;;;;;;;2.00;1.27;;;;;;;25.65;38.65;94548.28;4968709;28;20120;-69
2021/06/01 06:35:59;;;;;;;1.70;1.30;;;;;;;25.63;38.58;94556.28;4968108;28;20097;-69
2021/06/01 06:38:24;;;;;;;1.35;1.15;;;;;;;25.60;38.61;94568.28;4968308;28;20513;-69
2021/06/01 06:41:05;;;;;;;1.75;1.20;;;;;;;25.51;38.87;94566.03;4968832;28;20082;-69
2021/06/01 06:43:31;;;;;;;1.95;1.00;;;;;;;25.55;38.79;94578.09;4941123;28;20062;-68
2021/06/01 06:45:56;;;;;;;1.38;0.90;;;;;;;24.73;38.79;94450.13;4968095;28;20512;-70
2021/06/01 06:48:22;;;;;;;1.45;1.17;;;;;;;25.50;38.92;94565.28;4933884;28;20023;-69
2021/06/01 06:50:47;;;;;;;1.20;1.10;;;;;;;25.48;39.02;94578.75;4963141;28;20019;-68
2021/06/01 06:53:13;;;;;;;1.35;0.90;;;;;;;25.44;39.14;94581.09;4965602;28;20038;-69
2021/06/01 06:55:38;;;;;;;1.20;1.00;;;;;;;25.39;39.53;94581.94;4969734;28;20011;-69
2021/06/01 06:58:04;;;;;;;1.58;0.98;;;;;;;25.36;39.03;94563.16;4969486;28;20046;-70
2021/06/01 07:00:30;;;;;;;2.20;1.13;;;;;;;25.31;39.11;94580.41;4952371;28;20541;-70
2021/06/01 07:02:55;;;;;;;2.13;1.10;;;;;;;25.25;39.60;94579.81;4969075;28;20039;-70
2021/06/01 07:05:21;;;;;;;1.90;1.10;;;;;;;25.23;39.32;94573.41;4951844;28;20047;-69
2021/06/01 07:07:48;;;;;;;2.35;1.10;;;;;;;25.18;39.78;94572.25;4951604;28;20422;-69
2021/06/01 07:10:14;;;;;;;3.25;1.30;;;;;;;25.16;39.99;94574.06;4968771;28;20035;-69
2021/06/01 07:12:43;;;;;;;3.70;1.20;;;;;;;24.91;40.10;94549.00;4968755;28;20034;-68
2021/06/01 07:15:15;;;;;;;2.22;0.93;;;;;;;25.13;39.60;94570.41;4948143;29;20020;-69
2021/06/01 07:17:43;;;;;;;1.40;1.00;;;;;;;24.96;39.74;94559.09;4965846;28;20047;-69
2021/06/01 07:20:11;;;;;;;1.67;1.20;;;;;;;25.13;39.82;94581.31;4948387;29;20034;-70
2021/06/01 07:22:36;;;;;;;3.58;1.20;;;;;;;25.07;40.14;94567.06;4949013;28;20055;-69
2021/06/01 07:25:02;;;;;;;1.40;1.00;;;;;;;25.08;39.82;94579.47;4952814;28;20178;-70
2021/06/01 07:27:28;;;;;;;1.67;1.00;;;;;;;25.06;40.14;94581.97;4968821;28;20138;-69
2021/06/01 07:29:53;;;;;;;1.55;1.20;;;;;;;25.05;40.04;94583.25;4968985;28;20029;-69
2021/06/01 07:32:20;;;;;;;2.05;1.00;;;;;;;25.04;40.36;94584.50;4968880;28;20030;-69
2021/06/01 07:34:46;;;;;;;1.52;1.10;;;;;;;24.59;40.01;94522.44;4968922;28;20026;-69
2021/06/01 07:37:11;;;;;;;1.38;1.00;;;;;;;25.01;40.15;94585.56;4968566;28;20758;-69
2021/06/01 07:39:37;;;;;;;4.70;1.40;;;;;;;25.01;40.11;94596.50;4968442;28;20073;-69
2021/06/01 07:42:03;;;;;;;1.50;1.10;;;;;;;24.97;40.09;94590.59;4969103;28;20055;-69
2021/06/01 07:44:30;;;;;;;2.40;0.90;;;;;;;24.96;40.29;94593.84;4967026;28;20023;-69
2021/06/01 07:46:56;;;;;;;2.50;1.17;;;;;;;24.93;40.54;94589.44;4968676;28;20129;-69
2021/06/01 07:49:21;;;;;;;1.92;1.13;;;;;;;24.90;40.32;94577.59;4968560;28;20038;-70
2021/06/01 07:51:46;;;;;;;1.73;1.10;;;;;;;24.93;40.07;94583.97;4952043;28;20030;-70
2021/06/01 07:54:12;;;;;;;1.65;1.50;;;;;;;24.81;40.70;94568.38;4964757;28;20019;-70
2021/06/01 07:56:37;;;;;;;1.92;1.23;;;;;;;24.89;40.16;94584.31;4969704;28;20042;-69
2021/06/01 07:59:03;;;;;;;2.25;1.10;;;;;;;24.90;40.19;94580.31;4952878;28;20027;-69
2021/06/01 08:01:28;;;;;;;1.48;0.90;;;;;;;24.31;40.59;94503.13;4955950;28;20023;-69
2021/06/01 08:03:55;;;;;;;1.77;1.20;;;;;;;24.89;40.46;94589.78;4952365;28;20035;-69
2021/06/01 08:06:20;;;;;;;1.33;1.00;;;;;;;24.79;40.41;94568.16;4935836;28;20038;-70
2021/06/01 08:08:46;;;;;;;1.55;1.20;;;;;;;24.02;40.46;94466.03;4952484;28;20019;-69
2021/06/01 08:11:11;;;;;;;2.10;1.33;;;;;;;24.71;40.66;94559.13;4950043;28;20035;-70
2021/06/01 08:13:36;;;;;;;2.40;1.20;;;;;;;24.83;40.44;94580.97;4969841;28;20041;-69
2021/06/01 08:16:03;;;;;;;1.75;1.20;;;;;;;24.81;40.63;94587.47;4966708;28;20027;-69
2021/06/01 08:18:32;;;;;;;1.70;1.33;;;;;;;24.82;40.75;94593.16;4968793;28;20030;-68
2021/06/01 08:21:12;;;;;;;1.88;1.20;;;;;;;24.82;40.67;94606.81;4964398;28;20026;-68
2021/06/01 08:23:39;;;;;;;1.83;1.20;;;;;;;24.75;40.38;94592.31;4949380;28;20034;-67
2021/06/01 08:26:04;;;;;;;1.70;1.23;;;;;;;24.80;40.67;94607.84;4961502;28;20577;-68
2021/06/01 08:28:30;;;;;;;1.52;1.20;;;;;;;24.77;40.64;94603.44;4959408;28;20027;-68
2021/06/01 08:30:56;;;;;;;1.63;1.25;;;;;;;24.68;40.62;94590.97;4949392;29;20118;-68
2021/06/01 08:33:21;;;;;;;2.95;1.20;;;;;;;24.36;40.89;94543.25;4956461;28;20021;-69
2021/06/01 08:35:47;;;;;;;3.50;1.40;;;;;;;24.74;40.88;94594.34;4965974;28;20027;-68
2021/06/01 08:38:14;;;;;;;2.67;1.50;;;;;;;24.74;41.15;94593.56;4959011;28;20031;-68
2021/06/01 08:40:40;;;;;;;1.80;1.20;;;;;;;24.75;40.58;94605.97;4963557;28;20752;-68
2021/06/01 08:43:21;;;;;;;2.42;1.23;;;;;;;24.72;41.03;94602.31;4968126;28;20027;-68
2021/06/01 08:45:49;;;;;;;1.52;1.10;;;;;;;24.72;40.97;94613.22;4968417;28;20023;-68
2021/06/01 08:48:14;;;;;;;2.75;1.48;;;;;;;24.72;40.66;94607.03;4967357;28;20030;-68
2021/06/01 08:50:40;;;;;;;1.85;1.20;;;;;;;24.62;41.07;94592.34;4950439;28;20035;-68
2021/06/01 08:53:05;;;;;;;2.70;1.45;;;;;;;24.70;41.25;94598.66;4950753;28;20034;-68
2021/06/01 08:55:30;;;;;;;8.07;1.70;;;;;;;24.71;40.83;94606.31;4966337;28;20052;-68
2021/06/01 08:57:56;;;;;;;3.10;1.75;;;;;;;24.69;41.19;94591.72;4963321;28;20485;-68
2021/06/01 09:00:21;;;;;;;1.90;1.35;;;;;;;24.72;41.19;94596.13;4966269;28;20022;-68
2021/06/01 09:03:07;;;;;;;2.40;1.50;;;;;;;24.76;41.25;94591.81;4956786;28;20059;-69
2021/06/01 09:05:32;;;;;;;2.50;1.30;;;;;;;24.78;41.05;94596.72;4928302;28;20028;-68
2021/06/01 09:08:06;;;;;;;2.92;1.30;;;;;;;24.87;40.83;94581.38;4949718;28;20030;-69
2021/06/01 09:21:35;;;;;;;2.63;1.50;;;;;;;24.93;41.34;94592.94;4951856;28;20041;-68
2021/06/01 09:24:03;;;;;;;1.90;1.38;;;;;;;24.42;41.01;94508.38;4963324;28;20121;-69
2021/06/01 09:29:23;;;;;;;3.83;1.52;;;;;;;25.24;40.73;94597.47;4948731;28;20084;-70
2021/06/01 09:32:07;;;;;;;4.25;1.70;;;;;;;25.27;40.43;94596.41;4949244;28;20490;-71
2021/06/01 09:34:45;;;;;;;2.40;1.50;;;;;;;25.39;40.36;94600.34;4963149;28;20023;-70
2021/06/01 09:37:32;;;;;;;2.25;1.35;;;;;;;25.46;40.07;94592.22;4931933;28;20027;-70
2021/06/01 09:40:12;;;;;;;3.55;1.80;;;;;;;25.62;39.75;94587.63;4965396;28;20030;-70
2021/06/01 09:42:42;;;;;;;2.33;1.70;;;;;;;25.75;39.61;94590.31;4968267;28;20058;-68
2021/06/01 09:45:16;;;;;;;2.20;1.38;;;;;;;25.85;39.55;94579.09;4952721;28;20688;-68
2021/06/01 09:47:41;;;;;;;3.13;1.40;;;;;;;25.92;39.17;94578.44;4966017;28;20034;-70
2021/06/01 09:50:22;;;;;;;1.90;1.40;;;;;;;26.03;39.06;94591.81;4968134;28;20031;-67
2021/06/01 09:52:49;;;;;;;2.03;1.35;;;;;;;26.09;38.87;94586.94;4968818;28;20041;-68
2021/06/01 09:55:16;;;;;;;1.75;1.27;;;;;;;26.17;38.79;94582.22;4969687;28;20122;-67
2021/06/01 09:57:43;;;;;;;3.83;1.60;;;;;;;26.24;38.66;94586.31;4970826;28;20569;-68
2021/06/01 10:00:18;;;;;;;2.17;1.60;;;;;;;26.34;38.15;94591.50;4968660;28;20394;-68
2021/06/01 10:02:45;;;;;;;2.92;1.60;;;;;;;26.02;38.38;94521.97;4968224;28;20055;-68
2021/06/01 10:05:19;;;;;;;2.65;1.55;;;;;;;26.56;38.14;94581.94;4949593;28;20034;-68
2021/06/01 10:07:45;;;;;;;3.28;1.42;;;;;;;26.57;38.24;94580.69;4955141;28;20038;-70
2021/06/01 10:10:24;;;;;;;8.60;1.65;;;;;;;26.68;38.22;94577.63;4950911;28;20118;-71
2021/06/01 10:12:54;;;;;;;4.53;1.45;;;;;;;26.70;38.22;94572.34;4953588;28;20027;-70
2021/06/01 10:15:22;;;;;;;2.35;1.52;;;;;;;26.76;38.14;94574.38;4932814;28;20023;-70
2021/06/01 10:17:49;;;;;;;3.30;1.50;;;;;;;26.77;37.71;94566.91;4963228;28;20118;-70
2021/06/01 10:20:16;;;;;;;3.30;1.40;;;;;;;26.91;38.00;94571.72;4965933;28;20387;-70
2021/06/01 10:22:41;;;;;;;2.90;1.75;;;;;;;26.85;37.86;94559.44;4964878;28;20038;-70
2021/06/01 10:25:08;;;;;;;2.95;1.67;;;;;;;27.03;37.65;94569.41;4968767;28;20039;-71
2021/06/01 10:27:33;;;;;;;2.45;1.50;;;;;;;27.03;37.48;94570.13;4968592;28;20026;-69
2021/06/01 10:29:59;;;;;;;2.03;1.48;;;;;;;26.00;38.09;94408.81;4951338;28;20053;-72
2021/06/01 10:32:24;;;;;;;5.07;1.60;;;;;;;26.74;37.56;94526.13;4949153;28;20037;-75
2021/06/01 10:34:50;;;;;;;4.18;1.60;;;;;;;27.17;37.65;94576.91;4967682;28;20031;-71
2021/06/01 10:48:47;;;;;;;2.92;1.40;;;;;;;27.10;37.20;94544.00;4960476;28;20104;-71
2021/06/01 10:51:28;;;;;;;4.80;1.60;;;;;;;27.35;36.77;94578.59;4950352;28;20789;-72
2021/06/01 10:53:55;;;;;;;3.13;1.50;;;;;;;27.29;37.16;94573.31;4969532;28;20039;-72
2021/06/01 10:56:20;;;;;;;2.45;1.90;;;;;;;27.45;37.23;94596.72;4968597;28;20038;-71
2021/06/01 10:58:52;;;;;;;2.38;1.60;;;;;;;27.38;36.81;94585.72;4951791;28;20077;-72
2021/06/01 11:04:08;;;;;;;2.30;1.75;;;;;;;27.37;37.12;94584.28;4956233;28;20106;-71
2021/06/01 11:06:57;;;;;;;2.40;1.67;;;;;;;27.35;37.14;94586.81;4967583;28;20054;-71
2021/06/01 11:09:36;;;;;;;3.13;1.70;;;;;;;27.41;37.06;94584.63;4958393;28;20096;-73
2021/06/01 11:12:26;;;;;;;1.80;1.30;;;;;;;27.41;37.09;94579.16;4962523;28;20042;-73
2021/06/01 11:14:56;;;;;;;2.53;1.60;;;;;;;27.48;36.81;94572.97;4961228;28;20117;-72
2021/06/01 11:17:52;;;;;;;2.30;1.60;;;;;;;27.51;37.08;94571.91;4947177;29;20125;-70
2021/06/01 11:20:27;;;;;;;2.92;1.70;;;;;;;27.62;36.58;94577.75;4943165;28;20832;-70
2021/06/01 11:23:19;;;;;;;2.35;1.90;;;;;;;27.63;36.48;94584.69;4954559;28;20080;-70
2021/06/01 11:33:51;;;;;;;2.70;1.70;;;;;;;27.52;36.41;94585.06;4959359;28;20600;-71
2021/06/01 11:36:18;;;;;;;2.60;1.65;;;;;;;27.45;36.40;94585.75;4951700;28;20034;-70
2021/06/01 11:38:52;;;;;;;2.25;1.67;;;;;;;27.37;36.89;94584.28;4952075;28;20058;-70
2021/06/01 11:44:16;;;;;;;3.53;1.85;;;;;;;27.25;37.10;94589.38;4955247;28;20418;-71
2021/06/01 11:46:49;;;;;;;3.42;1.75;;;;;;;27.17;36.96;94590.63;4964018;28;20034;-71
2021/06/01 11:51:58;;;;;;;2.03;1.38;;;;;;;26.98;37.69;94595.69;4950660;28;20526;-71
2021/06/01 11:54:24;;;;;;;2.35;1.50;;;;;;;26.91;37.60;94592.91;4950263;28;20035;-71
2021/06/01 12:18:40;;;;;;;3.03;1.60;;;;;;;26.42;38.87;94580.59;4968716;28;20214;-72
2021/06/01 12:21:08;;;;;;;3.47;1.58;;;;;;;26.66;38.77;94610.31;4967110;28;20370;-69
2021/06/01 12:23:37;;;;;;;3.05;1.58;;;;;;;26.67;38.92;94611.78;4947893;29;20038;-71
2021/06/01 12:31:48;;;;;;;2.57;1.70;;;;;;;26.06;39.72;94577.06;4968771;28;20133;-71
2021/06/01 12:34:17;;;;;;;2.78;1.80;;;;;;;26.08;40.43;94617.56;4950454;28;20476;-70
2021/06/01 12:45:33;;;;;;;2.20;1.90;;;;;;;25.69;40.72;94638.97;4935313;28;20037;-70
2021/06/01 13:19:16;;;;;;;4.32;1.80;;;;;;;25.31;41.42;94665.16;4950217;28;20121;-71
2021/06/01 13:20:32;;;;;;;2.17;1.60;;;;;;;25.20;41.24;94657.22;4952964;29;20115;-70
2021/06/01 13:37:13;;;;;;;2.17;1.67;;;;;;;25.13;41.38;94668.78;4951284;28;20057;-69
2021/06/01 13:50:46;;;;;;;2.20;1.88;;;;;;;25.07;41.56;94687.28;4953361;28;20031;-69
2021/06/01 13:56:11;;;;;;;2.65;1.70;;;;;;;24.99;41.21;94686.47;4971522;28;20483;-69
2021/06/01 15:49:33;;;;;;;1.67;1.30;;;;;;;24.72;42.78;94725.19;4967890;28;20034;-69
2021/06/01 16:44:18;;;;;;;2.58;1.05;;;;;;;26.18;40.02;94758.19;4951684;28;20049;-71